Oscoda, MI

6:10 PM EST on February 08, 2016 (GMT -0500)
Oscoda-Wurtsmith | | Change Station
CLOSE
Current Station
Airport
Location: Oscoda,
Elevation: 633 ft
Nearby Weather Stations

Elev 633 ft 44.45 °N, 83.39 °W | Updated 16 minutes ago

Overcast
Overcast
35 °F
Feels Like 35 °F
N
0
Wind Variable Wind from North

Today
High -- | Low -- °F
--% Chance of Precip.
Yesterday
High -- | Low -- °F
Precip. -- in
Pressure 29.57 in
Visibility 10.0 miles
Clouds Overcast 2500 ft
Dew Point 32 °F
Humidity 89%
Rainfall 0.00 in
Snow Depth Not available.
7:44 AM 5:52 PM
New Moon, 0% visible
METAR KOSC 082254Z AUTO 00000KT 10SM -DZ OVC025 02/00 A2957 RMK AO2 T00151001
Pressure 29.57 in
Visibility 10.0 miles
Clouds Overcast 2500 ft
Dew Point 32 °F
Humidity 89%
Rainfall 0.00 in
Snow Depth Not available.
7:44 AM 5:52 PM
New Moon, 0% visible
METAR KOSC 082254Z AUTO 00000KT 10SM -DZ OVC025 02/00 A2957 RMK AO2 T00151001

10-Day Weather Forecast

Almanac

Astronomy

Feb. 08, 2016 Rise Set
Actual Time
Civil Twilight
Nautical Twilight
Astronomical Twilight
Moon
Length of Visible Light
Length of Day
Tomorrow will be .
, % of the Moon is Illuminated

Today's Extremes

State Highs State Lows

Community

WunderPhotos

Upload Photos

1,891,523 photos uploaded!

WunderBlog® & News

Nearby

Air Quality

  Air Quality AQ Index Pollutant
Not available.

Snow Depth

Station Depth Elevation

Earthquake Activity

City Distance Mag. Time & Date
Minimum magnitude displayed is 2.5.

Coastal Water Temperatures

Place Temperature

Stations

Nearby Weather Stations

Station Location Temp. Windchill Dew Point Humidity Wind Precip. Elev Updated Type
                   

Watches & Warnings

There are currently no watches in effect.